createdAt,value
2017-10-07T00:01:45.568Z,94.60
2017-10-07T00:04:13.150Z,94.50
2017-10-07T00:06:40.675Z,94.70
2017-10-07T00:09:08.215Z,95.20
2017-10-07T00:11:35.788Z,95.70
2017-10-07T00:14:03.325Z,95.90
2017-10-07T00:16:31.605Z,95.60
2017-10-07T00:18:59.883Z,95.70
2017-10-07T00:21:27.475Z,95.70
2017-10-07T00:23:54.980Z,95.90
2017-10-07T00:26:22.804Z,95.30
2017-10-07T00:28:50.301Z,95.40
2017-10-07T00:31:17.828Z,95.20
2017-10-07T00:33:45.333Z,94.90
2017-10-07T00:36:13.662Z,95.00
2017-10-07T00:38:41.167Z,94.90
2017-10-07T00:41:08.725Z,95.00
2017-10-07T00:43:36.485Z,95.10
2017-10-07T00:46:04.021Z,96.00
2017-10-07T00:48:31.574Z,95.80
2017-10-07T00:50:59.104Z,95.40
2017-10-07T00:53:26.634Z,95.80
2017-10-07T00:55:54.169Z,95.80
2017-10-07T00:58:21.702Z,96.10
2017-10-07T01:00:49.254Z,95.90
2017-10-07T01:03:16.769Z,96.20
2017-10-07T01:05:44.297Z,95.90
2017-10-07T01:08:11.812Z,95.70
2017-10-07T01:10:40.118Z,96.30
2017-10-07T01:13:08.565Z,96.30
2017-10-07T01:15:36.849Z,96.00
2017-10-07T01:18:05.125Z,96.10
2017-10-07T01:20:33.452Z,95.90
2017-10-07T01:23:00.985Z,95.90
2017-10-07T01:25:28.491Z,95.30
2017-10-07T01:27:56.019Z,95.30
2017-10-07T01:30:23.572Z,96.20
2017-10-07T01:32:51.099Z,95.90
2017-10-07T01:35:19.416Z,95.50
2017-10-07T01:37:46.953Z,95.40
2017-10-07T01:40:14.480Z,95.10
2017-10-07T01:42:42.789Z,96.20
2017-10-07T01:45:10.369Z,96.20
2017-10-07T01:47:37.881Z,96.40
2017-10-07T01:50:06.214Z,96.30
2017-10-07T01:52:33.713Z,96.30
2017-10-07T01:55:01.240Z,96.40
2017-10-07T01:57:30.685Z,96.10
2017-10-07T01:59:58.990Z,96.30
2017-10-07T02:02:26.536Z,96.30
2017-10-07T02:04:54.038Z,96.50
2017-10-07T02:07:21.575Z,96.50
2017-10-07T02:09:49.103Z,96.70
2017-10-07T02:12:17.440Z,96.50
2017-10-07T02:14:44.944Z,96.40
2017-10-07T02:17:13.225Z,97.00
2017-10-07T02:19:41.489Z,96.40
2017-10-07T02:22:09.778Z,95.80
2017-10-07T02:24:38.057Z,95.50
2017-10-07T02:27:06.341Z,95.70
2017-10-07T02:29:33.889Z,95.70
2017-10-07T02:32:02.235Z,95.30
2017-10-07T02:34:30.178Z,95.30
2017-10-07T02:36:57.713Z,95.20
2017-10-07T02:39:25.229Z,95.40
2017-10-07T02:41:52.784Z,95.50
2017-10-07T02:44:20.356Z,95.70
2017-10-07T02:46:48.670Z,95.80
2017-10-07T02:49:16.185Z,95.80
2017-10-07T02:51:44.512Z,95.80
2017-10-07T02:54:12.035Z,95.70
2017-10-07T02:56:40.342Z,95.30
2017-10-07T02:59:07.855Z,95.30
2017-10-07T03:01:36.191Z,95.10
2017-10-07T03:04:03.721Z,95.10
2017-10-07T03:06:32.031Z,95.30
2017-10-07T03:08:59.566Z,95.20
2017-10-07T03:11:27.876Z,94.90
2017-10-07T03:13:55.434Z,94.90
2017-10-07T03:16:23.102Z,94.80
2017-10-07T03:18:50.620Z,94.50
2017-10-07T03:21:18.896Z,95.80
2017-10-07T03:23:47.241Z,95.40
2017-10-07T03:26:14.778Z,95.40
2017-10-07T03:28:42.341Z,94.80
2017-10-07T03:31:09.858Z,95.00
2017-10-07T03:33:38.192Z,95.30
2017-10-07T03:36:05.708Z,95.30
2017-10-07T03:38:33.240Z,95.50
2017-10-07T03:41:01.536Z,95.80
2017-10-07T03:43:30.009Z,95.80
2017-10-07T03:45:57.528Z,95.80
2017-10-07T03:48:25.059Z,95.50
2017-10-07T03:50:52.565Z,95.80
2017-10-07T03:53:20.078Z,95.80
2017-10-07T03:55:47.592Z,95.00
2017-10-07T03:58:15.872Z,95.50
2017-10-07T04:00:44.157Z,95.20
2017-10-07T04:03:11.721Z,95.20
2017-10-07T04:05:39.244Z,95.50
2017-10-07T04:08:08.281Z,95.60
2017-10-07T04:10:36.732Z,95.40
2017-10-07T04:13:04.293Z,95.70
2017-10-07T04:15:31.801Z,95.20
2017-10-07T04:17:59.354Z,95.00
2017-10-07T04:20:26.868Z,95.10
2017-10-07T04:22:54.392Z,94.90
2017-10-07T04:25:21.906Z,95.10
2017-10-07T04:27:50.209Z,94.90
2017-10-07T04:30:17.728Z,94.90
2017-10-07T04:32:45.251Z,94.30
2017-10-07T04:35:12.753Z,94.30
2017-10-07T04:37:41.091Z,94.30
2017-10-07T04:40:08.633Z,93.90
2017-10-07T04:42:36.189Z,93.90
2017-10-07T04:45:03.683Z,94.00
2017-10-07T04:47:31.236Z,94.30
2017-10-07T04:49:58.730Z,94.80
2017-10-07T04:52:27.070Z,94.10
2017-10-07T04:54:54.580Z,94.10
2017-10-07T04:57:23.166Z,94.20
2017-10-07T04:59:51.445Z,93.80
2017-10-07T05:02:19.776Z,93.50
2017-10-07T05:04:47.317Z,93.40
2017-10-07T05:07:14.848Z,94.00
2017-10-07T05:09:42.391Z,94.10
2017-10-07T05:12:10.672Z,93.50
2017-10-07T05:14:38.984Z,93.30
2017-10-07T05:17:06.514Z,93.30
2017-10-07T05:19:34.807Z,93.00
2017-10-07T05:22:02.323Z,93.00
2017-10-07T05:24:30.224Z,93.30
2017-10-07T05:26:57.743Z,93.00
2017-10-07T05:29:25.301Z,92.60
2017-10-07T05:31:52.820Z,92.80
2017-10-07T05:34:20.414Z,92.60
2017-10-07T05:36:47.981Z,92.50
2017-10-07T05:39:15.550Z,93.10
2017-10-07T05:41:43.064Z,92.00
2017-10-07T05:44:10.599Z,92.20
2017-10-07T05:46:38.109Z,92.50
2017-10-07T05:49:05.660Z,91.70
2017-10-07T05:51:33.216Z,92.60
2017-10-07T05:54:00.797Z,91.80
2017-10-07T05:56:30.024Z,91.50
2017-10-07T05:58:58.308Z,91.10
2017-10-07T06:01:26.585Z,90.90
2017-10-07T06:03:54.891Z,90.50
2017-10-07T06:06:22.417Z,90.50
2017-10-07T06:08:50.746Z,90.80
2017-10-07T06:11:18.293Z,90.80
2017-10-07T06:13:45.817Z,90.80
2017-10-07T06:16:14.089Z,90.10
2017-10-07T06:18:42.376Z,90.80
2017-10-07T06:21:10.695Z,90.60
2017-10-07T06:23:38.218Z,90.60
2017-10-07T06:26:05.718Z,90.00
2017-10-07T06:28:33.242Z,90.00
2017-10-07T06:31:00.764Z,89.90
2017-10-07T06:33:28.292Z,89.10
2017-10-07T06:35:55.808Z,90.00
2017-10-07T06:38:23.345Z,90.00
2017-10-07T06:40:50.871Z,89.40
2017-10-07T06:43:18.372Z,90.10
2017-10-07T06:45:46.649Z,90.20
2017-10-07T06:48:14.952Z,90.70
2017-10-07T06:50:42.498Z,90.60
2017-10-07T06:53:10.017Z,89.10
2017-10-07T06:55:37.539Z,89.20
2017-10-07T06:58:05.050Z,88.30
2017-10-07T07:00:32.571Z,89.40
2017-10-07T07:03:00.095Z,88.90
2017-10-07T07:05:28.584Z,87.00
2017-10-07T07:07:56.169Z,86.90
2017-10-07T07:10:23.714Z,86.60
2017-10-07T07:12:51.237Z,86.50
2017-10-07T07:15:18.829Z,85.10
2017-10-07T07:17:46.350Z,85.40
2017-10-07T07:20:13.870Z,85.40
2017-10-07T07:22:41.405Z,85.60
2017-10-07T07:25:08.937Z,85.30
2017-10-07T07:27:36.457Z,84.60
2017-10-07T07:30:03.981Z,84.60
2017-10-07T07:32:31.544Z,85.10
2017-10-07T07:34:59.087Z,85.30
2017-10-07T07:37:27.358Z,85.70
2017-10-07T07:39:55.638Z,84.60
2017-10-07T07:42:23.948Z,84.80
2017-10-07T07:44:51.507Z,84.80
2017-10-07T07:47:19.042Z,84.40
2017-10-07T07:49:47.389Z,85.80
2017-10-07T07:52:14.909Z,85.80
2017-10-07T07:54:42.452Z,85.30
2017-10-07T07:57:09.977Z,84.80
2017-10-07T07:59:37.523Z,84.90
2017-10-07T08:02:05.086Z,85.70
2017-10-07T08:04:32.609Z,85.40
2017-10-07T08:07:00.152Z,84.90
2017-10-07T08:09:27.713Z,84.40
2017-10-07T08:11:55.246Z,83.90
2017-10-07T08:14:23.617Z,83.70
2017-10-07T08:16:51.904Z,83.60
2017-10-07T08:19:20.219Z,84.40
2017-10-07T08:21:47.745Z,84.30
2017-10-07T08:24:16.059Z,83.40
2017-10-07T08:26:43.581Z,83.30
2017-10-07T08:29:11.853Z,82.80
2017-10-07T08:31:40.140Z,83.00
2017-10-07T08:34:08.417Z,82.90
2017-10-07T08:36:36.730Z,83.10
2017-10-07T08:39:04.253Z,83.00
2017-10-07T08:41:32.569Z,83.10
2017-10-07T08:44:00.099Z,83.10
2017-10-07T08:46:27.640Z,82.10
2017-10-07T08:48:55.905Z,83.00
2017-10-07T08:51:23.441Z,83.00
2017-10-07T08:53:50.962Z,84.10
2017-10-07T08:56:18.517Z,84.70
2017-10-07T08:58:46.032Z,85.20
2017-10-07T09:01:13.598Z,84.20
2017-10-07T09:03:41.096Z,84.90
2017-10-07T09:06:08.615Z,83.90
2017-10-07T09:08:36.127Z,83.80
2017-10-07T09:11:03.670Z,82.70
2017-10-07T09:13:31.189Z,83.30
2017-10-07T09:15:58.758Z,86.10
2017-10-07T09:18:26.272Z,86.20
2017-10-07T09:20:53.831Z,84.80
2017-10-07T09:23:21.353Z,87.00
2017-10-07T09:25:49.628Z,85.90
2017-10-07T09:28:17.905Z,88.00
2017-10-07T09:30:46.206Z,88.80
2017-10-07T09:33:13.745Z,88.80
2017-10-07T09:35:42.048Z,87.80
2017-10-07T09:38:09.558Z,87.40
2017-10-07T09:40:37.104Z,87.40
2017-10-07T09:43:04.692Z,88.10
2017-10-07T09:45:33.028Z,86.70
2017-10-07T09:48:00.545Z,86.70
2017-10-07T09:50:28.081Z,86.50
2017-10-07T09:52:55.617Z,88.10
2017-10-07T09:55:23.164Z,88.10
2017-10-07T09:57:50.681Z,88.00
2017-10-07T10:00:18.981Z,87.10
2017-10-07T10:02:46.504Z,87.00
2017-10-07T10:05:14.048Z,85.80
2017-10-07T10:07:41.596Z,85.70
2017-10-07T10:10:09.118Z,85.40
2017-10-07T10:12:36.628Z,84.80
2017-10-07T10:15:04.125Z,84.90
2017-10-07T10:17:31.690Z,84.70
2017-10-07T10:19:59.201Z,84.70
2017-10-07T10:22:26.729Z,85.30
2017-10-07T10:24:54.250Z,85.00
2017-10-07T10:27:22.550Z,84.30
2017-10-07T10:29:50.836Z,83.50
2017-10-07T10:32:18.353Z,83.50
2017-10-07T10:34:45.870Z,84.80
2017-10-07T10:37:14.105Z,86.50
2017-10-07T10:39:42.398Z,86.20
2017-10-07T10:42:10.692Z,85.10
2017-10-07T10:44:38.197Z,84.90
2017-10-07T10:47:06.544Z,83.80
2017-10-07T10:49:34.068Z,83.70
2017-10-07T10:52:01.603Z,84.60
2017-10-07T10:54:29.130Z,83.50
2017-10-07T10:56:56.656Z,84.70
2017-10-07T10:59:24.164Z,83.20
2017-10-07T11:01:52.465Z,83.90
2017-10-07T11:04:20.826Z,85.60
2017-10-07T11:06:48.373Z,85.60
2017-10-07T11:09:16.727Z,90.20
2017-10-07T11:11:44.284Z,90.10
2017-10-07T11:14:11.879Z,91.00
2017-10-07T11:16:39.452Z,92.40
2017-10-07T11:19:06.968Z,92.70
2017-10-07T11:21:40.418Z,93.70
2017-10-07T11:24:07.942Z,94.60
2017-10-07T11:26:35.481Z,94.50
2017-10-07T11:29:02.997Z,93.60
2017-10-07T11:31:31.435Z,95.20
2017-10-07T11:33:58.945Z,95.20
2017-10-07T11:36:26.497Z,95.40
2017-10-07T11:38:54.785Z,94.70
2017-10-07T11:41:23.116Z,95.50
2017-10-07T11:43:50.629Z,95.50
2017-10-07T11:46:18.153Z,95.10
2017-10-07T11:48:45.694Z,95.90
2017-10-07T11:51:13.219Z,96.00
2017-10-07T11:53:40.740Z,95.40
2017-10-07T11:56:09.055Z,96.00
2017-10-07T11:58:36.593Z,96.00
2017-10-07T12:01:04.109Z,96.70
2017-10-07T12:03:31.630Z,97.20
2017-10-07T12:05:59.126Z,97.60
2017-10-07T12:08:26.645Z,97.90
2017-10-07T12:10:54.149Z,98.20
2017-10-07T12:13:21.686Z,97.60
2017-10-07T12:15:49.208Z,97.50
2017-10-07T12:18:17.517Z,98.40
2017-10-07T12:20:45.024Z,98.30
2017-10-07T12:23:13.332Z,99.60
2017-10-07T12:25:40.853Z,99.60
2017-10-07T12:28:08.409Z,99.50
2017-10-07T12:30:35.917Z,99.40
2017-10-07T12:33:03.468Z,99.20
2017-10-07T12:35:31.041Z,98.90
2017-10-07T12:37:58.606Z,98.70
2017-10-07T12:40:26.127Z,99.10
2017-10-07T12:42:54.542Z,98.60
2017-10-07T12:45:22.061Z,98.60
2017-10-07T12:47:49.619Z,98.70
2017-10-07T12:50:17.896Z,97.60
2017-10-07T12:52:46.220Z,97.10
2017-10-07T12:55:13.746Z,97.10
2017-10-07T12:57:42.058Z,97.80
2017-10-07T13:00:09.589Z,97.80
2017-10-07T13:02:37.864Z,97.60
2017-10-07T13:05:05.369Z,97.60
2017-10-07T13:07:32.921Z,97.80
2017-10-07T13:10:00.440Z,97.90
2017-10-07T13:12:28.748Z,98.80
2017-10-07T13:14:56.769Z,98.80
2017-10-07T13:17:24.301Z,99.50
2017-10-07T13:19:51.823Z,99.70
2017-10-07T13:22:20.124Z,99.20
2017-10-07T13:24:47.635Z,99.20
2017-10-07T13:27:15.230Z,99.60
2017-10-07T13:29:42.725Z,99.30
2017-10-07T13:32:10.244Z,99.80
2017-10-07T13:34:37.762Z,99.80
2017-10-07T13:37:05.325Z,99.90
2017-10-07T13:39:32.825Z,99.90
2017-10-07T13:42:01.157Z,99.90
2017-10-07T13:44:28.677Z,99.90
2017-10-07T13:46:56.201Z,99.90
2017-10-07T13:49:24.478Z,99.90
2017-10-07T13:51:52.758Z,99.90
2017-10-07T13:54:21.101Z,99.90
2017-10-07T13:56:48.634Z,99.90
2017-10-07T13:59:16.158Z,99.90
2017-10-07T14:01:44.990Z,99.90
2017-10-07T14:04:12.553Z,99.90
2017-10-07T14:06:40.070Z,99.80
2017-10-07T14:09:07.629Z,99.70
2017-10-07T14:11:35.953Z,99.30
2017-10-07T14:14:03.553Z,99.90
2017-10-07T14:16:31.816Z,99.50
2017-10-07T14:18:59.368Z,99.50
2017-10-07T14:21:26.890Z,99.50
2017-10-07T14:23:54.418Z,99.80
2017-10-07T14:26:22.704Z,99.30
2017-10-07T14:28:50.327Z,99.30
2017-10-07T14:31:17.849Z,99.80
2017-10-07T14:33:45.381Z,99.90
2017-10-07T14:36:12.912Z,99.90
2017-10-07T14:38:40.430Z,99.90
2017-10-07T14:41:07.933Z,99.50
2017-10-07T14:43:36.249Z,99.10
2017-10-07T14:46:03.805Z,99.10
2017-10-07T14:48:31.336Z,99.20
2017-10-07T14:50:59.617Z,99.60
2017-10-07T14:53:27.958Z,99.90
2017-10-07T14:55:55.500Z,99.90
2017-10-07T14:58:23.050Z,99.90
2017-10-07T15:00:50.560Z,99.90
2017-10-07T15:03:18.088Z,99.90
2017-10-07T15:05:45.600Z,99.90
2017-10-07T15:08:13.911Z,99.90
2017-10-07T15:10:41.440Z,99.90
2017-10-07T15:13:09.003Z,99.90
2017-10-07T15:15:36.517Z,99.90
2017-10-07T15:18:04.053Z,99.90
2017-10-07T15:20:31.577Z,99.90
2017-10-07T15:22:59.864Z,99.90
2017-10-07T15:25:27.410Z,99.90
2017-10-07T15:27:55.688Z,99.90
2017-10-07T15:30:24.018Z,99.90
2017-10-07T15:32:51.577Z,99.90
2017-10-07T15:35:19.137Z,99.90
2017-10-07T15:37:46.675Z,99.90
2017-10-07T15:40:14.262Z,99.90
2017-10-07T15:42:41.766Z,99.90
2017-10-07T15:45:10.087Z,99.90
2017-10-07T15:47:37.599Z,99.90
2017-10-07T15:50:05.966Z,99.90
2017-10-07T15:52:34.250Z,99.90
2017-10-07T15:55:02.583Z,99.90
2017-10-07T15:57:31.015Z,99.90
2017-10-07T16:00:00.214Z,99.90
2017-10-07T16:02:27.718Z,99.90
2017-10-07T16:04:55.277Z,99.90
2017-10-07T16:07:22.800Z,99.90
2017-10-07T16:09:50.311Z,99.90
2017-10-07T16:12:17.812Z,99.90
2017-10-07T16:14:45.368Z,99.90
2017-10-07T16:17:12.914Z,99.90
2017-10-07T16:19:40.477Z,99.90
2017-10-07T16:22:08.777Z,99.90
2017-10-07T16:24:36.336Z,99.90
2017-10-07T16:27:03.870Z,99.90
2017-10-07T16:29:32.181Z,99.90
2017-10-07T16:31:59.682Z,99.90
2017-10-07T16:34:27.255Z,99.90
2017-10-07T16:36:54.765Z,99.90
2017-10-07T16:39:22.336Z,99.90
2017-10-07T16:41:49.881Z,99.90
2017-10-07T16:44:17.497Z,99.90
2017-10-07T16:46:45.010Z,99.90
2017-10-07T16:49:12.566Z,99.90
2017-10-07T16:51:40.080Z,99.90
2017-10-07T16:54:07.606Z,99.90
2017-10-07T16:59:09.916Z,99.90
2017-10-07T17:01:37.413Z,99.90
2017-10-07T17:04:06.508Z,99.90
2017-10-07T17:06:34.040Z,99.90
2017-10-07T17:09:02.398Z,99.90
2017-10-07T17:11:29.916Z,99.90
2017-10-07T17:13:57.452Z,99.90
2017-10-07T17:16:25.903Z,99.90
2017-10-07T17:18:54.660Z,99.90
2017-10-07T17:21:22.178Z,99.90
2017-10-07T17:23:50.465Z,99.90
2017-10-07T17:26:18.790Z,99.90
2017-10-07T17:28:46.300Z,99.90
2017-10-07T17:31:14.622Z,99.90
2017-10-07T17:33:42.146Z,99.90
2017-10-07T17:36:09.758Z,99.90
2017-10-07T17:38:37.303Z,99.90
2017-10-07T17:41:04.825Z,99.90
2017-10-07T17:43:32.329Z,99.90
2017-10-07T17:45:59.884Z,99.90
2017-10-07T17:48:27.438Z,99.90
2017-10-07T17:50:54.949Z,99.90
2017-10-07T17:53:23.213Z,99.90
2017-10-07T17:55:50.736Z,99.90
2017-10-07T17:58:18.261Z,99.90
2017-10-07T18:00:45.797Z,99.90
2017-10-07T18:03:14.074Z,99.90
2017-10-07T18:05:41.603Z,99.90
2017-10-07T18:08:09.237Z,99.90
2017-10-07T18:10:36.765Z,99.90
2017-10-07T18:13:05.045Z,99.90
2017-10-07T18:15:33.345Z,99.90
2017-10-07T18:18:00.839Z,99.90
2017-10-07T18:20:28.370Z,99.90
2017-10-07T18:22:55.876Z,99.90
2017-10-07T18:25:23.421Z,99.90
2017-10-07T18:27:50.926Z,99.90
2017-10-07T18:30:19.267Z,99.90
2017-10-07T18:32:46.788Z,99.90
2017-10-07T18:35:14.320Z,99.90
2017-10-07T18:37:42.625Z,99.90
2017-10-07T18:40:10.190Z,99.90
2017-10-07T18:42:37.693Z,99.90
2017-10-07T18:45:05.228Z,99.90
2017-10-07T18:47:32.750Z,99.90
2017-10-07T18:50:00.284Z,99.90
2017-10-07T18:52:28.554Z,99.90
2017-10-07T18:54:56.874Z,99.90
2017-10-07T18:57:24.412Z,99.90
2017-10-07T18:59:52.741Z,99.90
2017-10-07T19:02:20.280Z,99.90
2017-10-07T19:04:47.822Z,99.90
2017-10-07T19:07:15.355Z,99.90
2017-10-07T19:09:43.636Z,99.90
2017-10-07T19:12:11.925Z,99.90
2017-10-07T19:14:39.441Z,99.90
2017-10-07T19:17:07.001Z,99.90
2017-10-07T19:19:34.561Z,99.90
2017-10-07T19:22:02.126Z,99.90
2017-10-07T19:24:29.630Z,99.90
2017-10-07T19:26:57.147Z,99.90
2017-10-07T19:29:24.683Z,99.90
2017-10-07T19:31:52.199Z,99.90
2017-10-07T19:34:20.601Z,99.90
2017-10-07T19:36:48.139Z,99.90
2017-10-07T19:39:15.649Z,99.90
2017-10-07T19:41:43.190Z,99.90
2017-10-07T19:44:10.770Z,99.90
2017-10-07T19:46:38.297Z,99.90
2017-10-07T19:49:05.816Z,99.90
2017-10-07T19:51:34.158Z,99.90
2017-10-07T19:54:01.754Z,99.90
2017-10-07T19:56:30.136Z,99.90
2017-10-07T19:58:57.644Z,99.90
2017-10-07T20:01:25.198Z,99.90
2017-10-07T20:03:52.726Z,99.90
2017-10-07T20:06:20.263Z,99.90
2017-10-07T20:08:48.579Z,99.90
2017-10-07T20:11:16.124Z,99.90
2017-10-07T20:13:43.621Z,99.90
2017-10-07T20:16:11.186Z,99.90
2017-10-07T20:18:38.745Z,99.90
2017-10-07T20:21:07.909Z,99.90
2017-10-07T20:23:35.422Z,99.90
2017-10-07T20:26:02.971Z,99.90
2017-10-07T20:28:32.024Z,99.90
2017-10-07T20:30:59.540Z,99.90
2017-10-07T20:33:27.083Z,99.90
2017-10-07T20:35:54.590Z,99.90
2017-10-07T20:38:22.166Z,99.90
2017-10-07T20:40:49.734Z,99.90
2017-10-07T20:43:17.265Z,99.90
2017-10-07T20:45:45.576Z,99.90
2017-10-07T20:48:13.884Z,99.90
2017-10-07T20:50:41.416Z,99.90
2017-10-07T20:53:08.973Z,99.90
2017-10-07T20:55:36.521Z,99.90
2017-10-07T20:58:04.086Z,99.90
2017-10-07T21:00:31.610Z,99.90
2017-10-07T21:02:59.938Z,99.90
2017-10-07T21:05:27.448Z,99.90
2017-10-07T21:07:55.751Z,99.90
2017-10-07T21:10:23.284Z,99.90
2017-10-07T21:12:50.825Z,99.90
2017-10-07T21:15:18.332Z,99.90
2017-10-07T21:17:45.889Z,99.90
2017-10-07T21:20:13.413Z,99.90
2017-10-07T21:22:40.937Z,99.90
2017-10-07T21:25:08.448Z,99.90
2017-10-07T21:27:36.777Z,99.90
2017-10-07T21:30:04.290Z,99.90
2017-10-07T21:32:32.599Z,99.90
2017-10-07T21:35:00.119Z,99.90
2017-10-07T21:37:28.431Z,99.90
2017-10-07T21:39:55.962Z,99.90
2017-10-07T21:42:24.266Z,99.90
2017-10-07T21:44:51.799Z,99.90
2017-10-07T21:47:20.137Z,99.90
2017-10-07T21:49:47.683Z,99.90
2017-10-07T21:52:15.269Z,99.90
2017-10-07T21:54:42.764Z,99.90
2017-10-07T21:57:11.080Z,99.90
2017-10-07T21:59:38.641Z,99.90
2017-10-07T22:02:06.174Z,99.90
2017-10-07T22:04:33.686Z,99.90
2017-10-07T22:07:01.225Z,99.90
2017-10-07T22:09:28.716Z,99.90
2017-10-07T22:11:56.380Z,99.90
2017-10-07T22:14:23.952Z,99.90
2017-10-07T22:16:52.294Z,99.90
2017-10-07T22:19:19.851Z,99.90
2017-10-07T22:21:47.392Z,99.90
2017-10-07T22:24:15.054Z,99.90
2017-10-07T22:26:42.561Z,99.90
2017-10-07T22:29:10.881Z,99.90
2017-10-07T22:31:38.413Z,99.90
2017-10-07T22:34:06.727Z,99.90
2017-10-07T22:36:34.240Z,99.90
2017-10-07T22:39:01.775Z,99.90
2017-10-07T22:41:29.309Z,99.90
2017-10-07T22:43:56.831Z,99.90
2017-10-07T22:46:25.133Z,99.90
2017-10-07T22:48:52.657Z,99.90
2017-10-07T22:51:20.985Z,99.90
2017-10-07T22:53:48.532Z,99.90
2017-10-07T22:56:16.057Z,99.90
2017-10-07T22:58:44.357Z,99.90
2017-10-07T23:01:12.616Z,99.90
2017-10-07T23:03:40.941Z,99.90
2017-10-07T23:06:08.467Z,99.90
2017-10-07T23:08:35.998Z,99.90
2017-10-07T23:11:03.530Z,99.90
2017-10-07T23:13:31.582Z,99.90
2017-10-07T23:15:59.093Z,99.90
2017-10-07T23:18:27.408Z,99.90
2017-10-07T23:20:54.933Z,99.90
2017-10-07T23:23:23.348Z,99.90
2017-10-07T23:25:50.880Z,99.90
2017-10-07T23:28:18.433Z,99.90
2017-10-07T23:30:46.710Z,99.90
2017-10-07T23:33:15.022Z,99.90
2017-10-07T23:35:42.525Z,99.90
2017-10-07T23:38:10.049Z,99.90
2017-10-07T23:40:37.605Z,99.90
2017-10-07T23:43:05.132Z,99.90
2017-10-07T23:45:33.413Z,99.90
2017-10-07T23:48:01.035Z,99.90
2017-10-07T23:50:28.604Z,99.90
2017-10-07T23:52:56.133Z,99.90
2017-10-07T23:55:23.682Z,99.90
2017-10-07T23:57:51.226Z,99.90
